createdAt,value
2023-09-08T00:02:11.638Z,101204.44
2023-09-08T00:04:38.126Z,101196.94
2023-09-08T00:07:05.280Z,101202.72
2023-09-08T00:09:31.792Z,101198.09
2023-09-08T00:11:58.307Z,101202.19
2023-09-08T00:14:24.694Z,101197.88
2023-09-08T00:16:55.320Z,101204.22
2023-09-08T00:19:22.495Z,101203.00
2023-09-08T00:21:48.860Z,101199.00
2023-09-08T00:24:15.282Z,101200.31
2023-09-08T00:26:41.807Z,101196.72
2023-09-08T00:29:08.796Z,101189.22
2023-09-08T00:31:35.274Z,101190.06
2023-09-08T00:34:01.866Z,101188.16
2023-09-08T00:36:28.369Z,101188.75
2023-09-08T00:38:54.778Z,101186.25
2023-09-08T00:41:21.413Z,101186.38
2023-09-08T00:43:47.888Z,101187.13
2023-09-08T00:46:14.464Z,101188.53
2023-09-08T00:48:41.063Z,101187.03
2023-09-08T00:51:08.974Z,101182.16
2023-09-08T00:53:35.534Z,101179.59
2023-09-08T00:56:02.089Z,101185.72
2023-09-08T00:58:29.134Z,101181.63
2023-09-08T01:00:55.521Z,101188.47
2023-09-08T01:03:22.006Z,101196.16
2023-09-08T01:05:49.418Z,101191.28
2023-09-08T01:08:16.628Z,101190.34
2023-09-08T01:10:43.283Z,101192.91
2023-09-08T01:13:10.350Z,101185.00
2023-09-08T01:15:36.862Z,101190.88
2023-09-08T01:18:03.573Z,101190.91
2023-09-08T01:21:00.651Z,101191.63
2023-09-08T01:23:53.233Z,101196.16
2023-09-08T01:26:22.201Z,101193.81
2023-09-08T01:28:51.321Z,101201.97
2023-09-08T01:31:19.045Z,101197.44
2023-09-08T01:33:46.577Z,101199.66
2023-09-08T01:36:13.964Z,101197.28
2023-09-08T01:38:40.586Z,101204.53
2023-09-08T01:41:07.056Z,101188.03
2023-09-08T01:43:33.589Z,101191.88
2023-09-08T01:46:00.010Z,101186.34
2023-09-08T01:48:26.442Z,101183.38
2023-09-08T01:50:52.887Z,101190.75
2023-09-08T01:53:19.232Z,101184.94
2023-09-08T01:55:46.435Z,101181.84
2023-09-08T01:58:12.861Z,101171.38
2023-09-08T02:00:39.249Z,101173.59
2023-09-08T02:03:05.713Z,101168.19
2023-09-08T02:05:32.288Z,101170.06
2023-09-08T02:07:58.820Z,101162.44
2023-09-08T02:10:25.215Z,101165.72
2023-09-08T02:12:51.638Z,101171.38
2023-09-08T02:15:18.506Z,101168.38
2023-09-08T02:17:44.978Z,101176.44
2023-09-08T02:20:11.848Z,101172.66
2023-09-08T02:22:38.215Z,101175.31
2023-09-08T02:25:05.507Z,101169.09
2023-09-08T02:27:31.929Z,101171.34
2023-09-08T02:29:58.322Z,101164.38
2023-09-08T02:32:24.696Z,101166.25
2023-09-08T02:34:51.433Z,101167.47
2023-09-08T02:37:20.020Z,101172.06
2023-09-08T02:39:46.502Z,101165.41
2023-09-08T02:42:12.928Z,101167.41
2023-09-08T02:44:39.286Z,101170.91
2023-09-08T02:47:07.491Z,101164.81
2023-09-08T02:49:33.990Z,101167.94
2023-09-08T02:52:00.516Z,101174.06
2023-09-08T02:54:26.939Z,101166.25
2023-09-08T02:56:53.356Z,101168.66
2023-09-08T02:59:19.820Z,101162.16
2023-09-08T03:01:46.826Z,101164.44
2023-09-08T03:04:13.375Z,101159.31
2023-09-08T03:06:39.738Z,101164.69
2023-09-08T03:09:06.138Z,101170.00
2023-09-08T03:11:32.544Z,101161.19
2023-09-08T03:13:58.980Z,101156.56
2023-09-08T03:16:25.401Z,101166.50
2023-09-08T03:18:51.904Z,101160.59
2023-09-08T03:21:18.304Z,101161.63
2023-09-08T03:23:45.440Z,101162.16
2023-09-08T03:26:12.570Z,101168.03
2023-09-08T03:28:42.094Z,101156.31
2023-09-08T03:31:08.618Z,101157.91
2023-09-08T03:33:35.200Z,101154.41
2023-09-08T03:36:02.263Z,101150.81
2023-09-08T03:38:28.671Z,101156.97
2023-09-08T03:40:55.044Z,101156.06
2023-09-08T03:43:21.524Z,101147.56
2023-09-08T03:45:48.599Z,101149.28
2023-09-08T03:48:15.514Z,101143.19
2023-09-08T03:50:43.058Z,101150.47
2023-09-08T03:53:09.604Z,101141.63
2023-09-08T03:55:36.001Z,101150.47
2023-09-08T03:58:02.360Z,101160.31
2023-09-08T04:00:28.846Z,101159.78
2023-09-08T04:02:55.358Z,101156.63
2023-09-08T04:05:22.027Z,101156.38
2023-09-08T04:07:49.014Z,101146.88
2023-09-08T04:10:15.523Z,101150.97
2023-09-08T04:12:42.162Z,101152.69
2023-09-08T04:15:09.829Z,101156.88
2023-09-08T04:17:37.219Z,101156.78
2023-09-08T04:20:08.001Z,101162.81
2023-09-08T04:22:34.731Z,101155.25
2023-09-08T04:25:02.173Z,101154.81
2023-09-08T04:27:28.601Z,101159.84
2023-09-08T04:29:55.060Z,101153.84
2023-09-08T04:32:21.615Z,101159.41
2023-09-08T04:34:48.047Z,101161.47
2023-09-08T04:37:15.188Z,101151.19
2023-09-08T04:39:41.605Z,101155.88
2023-09-08T04:42:10.363Z,101151.97
2023-09-08T04:44:36.720Z,101157.53
2023-09-08T04:47:03.328Z,101156.19
2023-09-08T04:49:30.110Z,101152.69
2023-09-08T04:51:56.669Z,101153.03
2023-09-08T04:54:25.305Z,101154.53
2023-09-08T04:56:51.900Z,101156.97
2023-09-08T04:59:18.417Z,101152.25
2023-09-08T05:01:44.978Z,101151.50
2023-09-08T05:04:13.031Z,101163.47
2023-09-08T05:06:39.522Z,101162.53
2023-09-08T05:09:08.087Z,101155.19
2023-09-08T05:11:34.691Z,101158.94
2023-09-08T05:14:01.087Z,101162.84
2023-09-08T05:16:37.920Z,101156.53
2023-09-08T05:19:05.127Z,101166.38
2023-09-08T05:21:32.473Z,101164.44
2023-09-08T05:23:59.129Z,101161.59
2023-09-08T05:26:25.581Z,101161.34
2023-09-08T05:28:51.966Z,101154.25
2023-09-08T05:31:18.366Z,101164.81
2023-09-08T05:33:45.001Z,101158.34
2023-09-08T05:36:13.469Z,101160.84
2023-09-08T05:38:42.154Z,101162.63
2023-09-08T05:41:08.510Z,101159.91
2023-09-08T05:43:34.927Z,101164.56
2023-09-08T05:46:01.515Z,101160.91
2023-09-08T05:48:28.032Z,101165.91
2023-09-08T05:50:54.477Z,101165.41
2023-09-08T05:53:21.003Z,101167.53
2023-09-08T05:55:47.517Z,101169.84
2023-09-08T05:58:13.911Z,101170.69
2023-09-08T06:00:41.621Z,101180.91
2023-09-08T06:03:08.153Z,101175.56
2023-09-08T06:05:34.721Z,101170.91
2023-09-08T06:08:07.045Z,101174.38
2023-09-08T06:10:34.461Z,101172.97
2023-09-08T06:13:00.948Z,101177.75
2023-09-08T06:15:27.414Z,101173.03
2023-09-08T06:17:53.907Z,101175.72
2023-09-08T06:20:20.394Z,101174.28
2023-09-08T06:22:46.799Z,101171.81
2023-09-08T06:25:13.714Z,101172.59
2023-09-08T06:27:40.791Z,101174.69
2023-09-08T06:30:07.832Z,101186.09
2023-09-08T06:32:34.300Z,101179.16
2023-09-08T06:35:00.729Z,101170.88
2023-09-08T06:37:27.304Z,101180.09
2023-09-08T06:39:55.821Z,101177.34
2023-09-08T06:42:23.157Z,101179.44
2023-09-08T06:44:49.546Z,101186.38
2023-09-08T06:47:17.009Z,101175.25
2023-09-08T06:49:43.413Z,101180.56
2023-09-08T06:52:09.826Z,101179.88
2023-09-08T06:54:36.513Z,101186.91
2023-09-08T06:57:03.033Z,101180.13
2023-09-08T06:59:29.418Z,101176.81
2023-09-08T07:01:56.178Z,101171.72
2023-09-08T07:04:22.880Z,101173.25
2023-09-08T07:06:50.996Z,101174.31
2023-09-08T07:09:17.529Z,101169.44
2023-09-08T07:11:43.924Z,101178.50
2023-09-08T07:14:10.329Z,101168.53
2023-09-08T07:16:36.791Z,101167.50
2023-09-08T07:19:03.322Z,101172.84
2023-09-08T07:21:29.680Z,101168.66
2023-09-08T07:23:56.061Z,101169.72
2023-09-08T07:26:22.475Z,101162.16
2023-09-08T07:28:50.018Z,101165.56
2023-09-08T07:31:16.920Z,101155.94
2023-09-08T07:33:43.506Z,101159.00
2023-09-08T07:36:10.224Z,101157.94
2023-09-08T07:38:36.876Z,101152.47
2023-09-08T07:41:03.643Z,101158.34
2023-09-08T07:43:30.440Z,101156.66
2023-09-08T07:45:57.107Z,101159.91
2023-09-08T07:48:23.541Z,101157.44
2023-09-08T07:50:49.999Z,101149.00
2023-09-08T07:53:16.392Z,101158.78
2023-09-08T07:55:42.762Z,101153.00
2023-09-08T07:58:09.391Z,101153.59
2023-09-08T08:00:35.882Z,101155.09
2023-09-08T08:03:05.183Z,101156.59
2023-09-08T08:05:31.644Z,101154.88
2023-09-08T08:07:58.098Z,101155.50
2023-09-08T08:10:24.546Z,101156.94
2023-09-08T08:12:51.026Z,101155.72
2023-09-08T08:15:19.658Z,101159.53
2023-09-08T08:17:46.272Z,101160.22
2023-09-08T08:20:18.380Z,101156.66
2023-09-08T08:22:48.530Z,101156.00
2023-09-08T08:25:14.958Z,101162.00
2023-09-08T08:27:41.836Z,101165.63
2023-09-08T08:30:09.122Z,101152.28
2023-09-08T08:32:35.941Z,101164.44
2023-09-08T08:35:02.626Z,101166.00
2023-09-08T08:37:29.295Z,101161.88
2023-09-08T08:39:56.148Z,101154.94
2023-09-08T08:42:25.574Z,101149.09
2023-09-08T08:44:52.222Z,101149.22
2023-09-08T08:47:21.132Z,101148.81
2023-09-08T08:49:49.881Z,101148.75
2023-09-08T08:52:16.661Z,101141.97
2023-09-08T08:54:43.934Z,101138.88
2023-09-08T08:57:12.104Z,101131.00
2023-09-08T08:59:38.629Z,101131.56
2023-09-08T09:02:06.238Z,101126.75
2023-09-08T09:04:33.337Z,101122.78
2023-09-08T09:07:00.419Z,101121.09
2023-09-08T09:09:26.884Z,101121.72
2023-09-08T09:11:53.377Z,101122.88
2023-09-08T09:14:20.162Z,101129.44
2023-09-08T09:16:48.692Z,101134.81
2023-09-08T09:19:28.608Z,101130.63
2023-09-08T09:21:56.519Z,101133.31
2023-09-08T09:24:30.478Z,101128.34
2023-09-08T09:26:57.521Z,101126.63
2023-09-08T09:29:23.929Z,101122.06
2023-09-08T09:32:09.127Z,101126.59
2023-09-08T09:34:36.133Z,101130.72
2023-09-08T09:37:04.948Z,101128.00
2023-09-08T09:39:31.330Z,101132.19
2023-09-08T09:41:58.953Z,101133.00
2023-09-08T09:44:26.830Z,101125.91
2023-09-08T09:46:54.459Z,101127.47
2023-09-08T09:49:21.303Z,101124.47
2023-09-08T09:51:50.280Z,101117.53
2023-09-08T09:54:16.978Z,101125.56
2023-09-08T09:56:46.631Z,101125.91
2023-09-08T09:59:14.941Z,101126.13
2023-09-08T10:01:43.488Z,101126.06
2023-09-08T10:04:11.391Z,101123.38
2023-09-08T10:06:41.443Z,101122.06
2023-09-08T10:09:14.572Z,101120.44
2023-09-08T10:11:49.798Z,101118.81
2023-09-08T10:14:19.700Z,101121.91
2023-09-08T10:16:50.603Z,101116.50
2023-09-08T10:19:18.168Z,101120.03
2023-09-08T10:21:47.978Z,101105.41
2023-09-08T10:24:27.339Z,101105.13
2023-09-08T10:27:07.433Z,101106.50
2023-09-08T10:29:34.086Z,101108.16
2023-09-08T10:32:01.040Z,101113.69
2023-09-08T10:34:29.465Z,101114.81
2023-09-08T10:36:55.900Z,101108.38
2023-09-08T10:39:33.778Z,101102.47
2023-09-08T10:42:19.514Z,101102.53
2023-09-08T10:44:57.828Z,101101.59
2023-09-08T10:47:32.452Z,101094.00
2023-09-08T10:50:01.663Z,101095.69
2023-09-08T10:52:28.579Z,101087.34
2023-09-08T10:54:56.745Z,101098.75
2023-09-08T10:57:25.526Z,101092.66
2023-09-08T10:59:56.861Z,101096.19
2023-09-08T11:02:39.735Z,101094.78
2023-09-08T11:05:11.617Z,101086.19
2023-09-08T11:07:38.817Z,101095.44
2023-09-08T11:10:09.816Z,101084.13
2023-09-08T11:12:36.405Z,101081.13
2023-09-08T11:15:09.236Z,101079.91
2023-09-08T11:17:37.385Z,101076.28
2023-09-08T11:20:09.868Z,101075.34
2023-09-08T11:22:38.209Z,101078.88
2023-09-08T11:25:07.267Z,101076.59
2023-09-08T11:27:33.881Z,101070.06
2023-09-08T11:30:00.726Z,101071.94
2023-09-08T11:32:33.410Z,101068.84
2023-09-08T11:35:08.491Z,101079.94
2023-09-08T11:37:39.039Z,101078.00
2023-09-08T11:40:15.564Z,101069.22
2023-09-08T11:42:46.712Z,101070.91
2023-09-08T11:45:22.533Z,101067.63
2023-09-08T11:47:50.512Z,101067.88
2023-09-08T11:50:19.815Z,101066.56
2023-09-08T11:52:48.397Z,101063.94
2023-09-08T11:55:16.115Z,101056.38
2023-09-08T11:57:45.157Z,101057.97
2023-09-08T12:00:17.568Z,101058.88
2023-09-08T12:02:45.204Z,101060.56
2023-09-08T12:05:25.402Z,101055.16
2023-09-08T12:07:53.122Z,101056.38
2023-09-08T12:10:19.879Z,101063.03
2023-09-08T12:12:49.273Z,101053.88
2023-09-08T12:15:30.892Z,101051.66
2023-09-08T12:17:57.366Z,101051.00
2023-09-08T12:20:23.824Z,101041.56
2023-09-08T12:22:51.368Z,101042.59
2023-09-08T12:25:18.399Z,101038.47
2023-09-08T12:27:46.970Z,101040.53
2023-09-08T12:30:21.596Z,101041.72
2023-09-08T12:32:50.184Z,101038.13
2023-09-08T12:35:23.728Z,101037.28
2023-09-08T12:38:04.016Z,101043.63
2023-09-08T12:40:32.111Z,101033.50
2023-09-08T12:43:03.927Z,101032.66
2023-09-08T12:45:47.892Z,101025.44
2023-09-08T12:48:14.344Z,101033.06
2023-09-08T12:50:40.860Z,101028.31
2023-09-08T12:53:07.596Z,101024.53
2023-09-08T12:55:33.954Z,101025.22
2023-09-08T12:58:00.495Z,101013.53
2023-09-08T13:00:28.480Z,101020.75
2023-09-08T13:02:56.064Z,101008.69
2023-09-08T13:05:22.700Z,101012.78
2023-09-08T13:07:49.201Z,101006.59
2023-09-08T13:10:15.711Z,101001.31
2023-09-08T13:12:42.674Z,100999.75
2023-09-08T13:15:09.846Z,101003.06
2023-09-08T13:17:36.340Z,101000.94
2023-09-08T13:20:04.032Z,101001.88
2023-09-08T13:22:30.776Z,100991.38
2023-09-08T13:24:57.192Z,100995.28
2023-09-08T13:27:23.566Z,100998.81
2023-09-08T13:29:49.973Z,100991.44
2023-09-08T13:32:17.035Z,100993.72
2023-09-08T13:34:44.715Z,100991.25
2023-09-08T13:37:11.445Z,100992.69
2023-09-08T13:39:38.022Z,100990.38
2023-09-08T13:42:04.669Z,100983.09
2023-09-08T13:44:31.357Z,100985.06
2023-09-08T13:46:58.161Z,100986.88
2023-09-08T13:49:26.361Z,100990.94
2023-09-08T13:51:57.201Z,100987.66
2023-09-08T13:54:25.077Z,100984.19
2023-09-08T13:57:01.848Z,100980.69
2023-09-08T13:59:30.327Z,100986.28
2023-09-08T14:02:33.472Z,100982.22
2023-09-08T14:04:51.217Z,100975.81
2023-09-08T14:09:54.931Z,100972.59
2023-09-08T14:12:34.583Z,100967.84
2023-09-08T14:15:03.408Z,100966.41
2023-09-08T14:17:29.998Z,100964.81
2023-09-08T14:19:56.684Z,100970.16
2023-09-08T14:22:23.165Z,100969.69
2023-09-08T14:24:49.638Z,100964.03
2023-09-08T14:27:16.211Z,100964.69
2023-09-08T14:29:42.637Z,100955.88
2023-09-08T14:32:09.265Z,100948.19
2023-09-08T14:34:35.750Z,100954.00
2023-09-08T14:37:04.771Z,100953.56
2023-09-08T14:39:32.029Z,100946.97
2023-09-08T14:41:58.457Z,100947.22
2023-09-08T14:44:24.886Z,100946.94
2023-09-08T14:46:51.927Z,100951.59
2023-09-08T14:49:18.710Z,100952.09
2023-09-08T14:51:45.640Z,100951.94
2023-09-08T14:54:12.197Z,100945.06
2023-09-08T14:56:38.642Z,100958.84
2023-09-08T14:59:05.091Z,100952.38
2023-09-08T15:01:31.499Z,100951.72
2023-09-08T15:03:58.054Z,100948.09
2023-09-08T15:06:27.311Z,100950.53
2023-09-08T15:08:54.908Z,100948.13
2023-09-08T15:11:21.707Z,100945.63
2023-09-08T15:13:48.129Z,100941.16
2023-09-08T15:16:16.121Z,100937.94
2023-09-08T15:18:42.880Z,100940.28
2023-09-08T15:21:09.590Z,100947.78
2023-09-08T15:23:36.787Z,100944.09
2023-09-08T15:26:03.565Z,100945.09
2023-09-08T15:28:30.431Z,100943.72
2023-09-08T15:30:57.055Z,100945.69
2023-09-08T15:33:24.818Z,100938.22
2023-09-08T15:35:55.858Z,100932.75
2023-09-08T15:38:23.775Z,100938.38
2023-09-08T15:41:08.712Z,100942.44
2023-09-08T15:43:37.406Z,100942.03
2023-09-08T15:46:05.148Z,100935.47
2023-09-08T15:48:31.610Z,100934.41
2023-09-08T15:50:58.380Z,100938.38
2023-09-08T15:53:25.177Z,100944.78
2023-09-08T15:55:51.938Z,100942.03
2023-09-08T15:58:18.664Z,100942.66
2023-09-08T16:00:45.274Z,100943.16
2023-09-08T16:03:12.046Z,100936.03
2023-09-08T16:05:38.831Z,100938.28
2023-09-08T16:08:05.868Z,100934.72
2023-09-08T16:10:32.571Z,100941.59
2023-09-08T16:13:01.715Z,100938.59
2023-09-08T16:15:28.774Z,100940.69
2023-09-08T16:17:55.532Z,100940.81
2023-09-08T16:20:23.067Z,100933.13
2023-09-08T16:22:50.159Z,100936.28
2023-09-08T16:25:18.359Z,100938.91
2023-09-08T16:27:48.074Z,100935.75
2023-09-08T16:30:14.812Z,100934.19
2023-09-08T16:32:41.938Z,100933.25
2023-09-08T16:35:09.252Z,100941.63
2023-09-08T16:37:35.814Z,100942.16
2023-09-08T16:40:02.546Z,100945.09
2023-09-08T16:42:29.203Z,100941.88
2023-09-08T16:44:55.946Z,100937.66
2023-09-08T16:47:24.359Z,100938.75
2023-09-08T16:49:51.188Z,100934.16
2023-09-08T16:52:17.718Z,100939.94
2023-09-08T16:54:46.306Z,100942.19
2023-09-08T16:57:13.236Z,100939.41
2023-09-08T16:59:39.696Z,100942.94
2023-09-08T17:02:06.278Z,100938.69
2023-09-08T17:04:33.060Z,100938.03
2023-09-08T17:06:59.995Z,100944.66
2023-09-08T17:09:27.362Z,100938.72
2023-09-08T17:11:53.755Z,100939.44
2023-09-08T17:14:20.112Z,100941.97
2023-09-08T17:16:46.520Z,100948.44
2023-09-08T17:19:12.968Z,100953.50
2023-09-08T17:21:39.350Z,100948.41
2023-09-08T17:24:06.209Z,100950.09
2023-09-08T17:26:32.574Z,100948.38
2023-09-08T17:28:58.936Z,100948.06
2023-09-08T17:31:25.349Z,100950.56
2023-09-08T17:33:51.788Z,100958.69
2023-09-08T17:36:18.322Z,100960.06
2023-09-08T17:38:44.797Z,100955.50
2023-09-08T17:41:11.258Z,100964.22
2023-09-08T17:43:38.139Z,100960.44
2023-09-08T17:46:05.471Z,100962.84
2023-09-08T17:48:32.166Z,100961.63
2023-09-08T17:50:58.549Z,100965.75
2023-09-08T17:53:24.904Z,100963.91
2023-09-08T17:55:51.306Z,100973.53
2023-09-08T17:58:17.825Z,100972.81
2023-09-08T18:00:45.143Z,100972.75
2023-09-08T18:03:14.474Z,100968.44
2023-09-08T18:05:42.725Z,100981.91
2023-09-08T18:08:09.292Z,100979.44
2023-09-08T18:10:35.772Z,100978.34
2023-09-08T18:13:02.286Z,100978.91
2023-09-08T18:15:28.742Z,100980.13
2023-09-08T18:17:55.183Z,100987.25
2023-09-08T18:20:21.666Z,100979.69
2023-09-08T18:22:48.082Z,100984.50
2023-09-08T18:25:14.572Z,100987.56
2023-09-08T18:27:41.045Z,100989.72
2023-09-08T18:30:07.913Z,100993.34
2023-09-08T18:32:34.972Z,100995.91
2023-09-08T18:35:01.340Z,100994.50
2023-09-08T18:37:27.771Z,100998.50
2023-09-08T18:39:54.650Z,100988.81
2023-09-08T18:42:21.037Z,100995.84
2023-09-08T18:44:47.462Z,100995.31
2023-09-08T18:47:13.828Z,100992.78
2023-09-08T18:49:40.432Z,101004.56
2023-09-08T18:52:06.848Z,100998.16
2023-09-08T18:54:33.312Z,101005.25
2023-09-08T18:57:00.098Z,101007.75
2023-09-08T18:59:26.552Z,101010.91
2023-09-08T19:01:54.551Z,101013.16
2023-09-08T19:04:21.002Z,101018.38
2023-09-08T19:06:47.377Z,101015.59
2023-09-08T19:09:13.853Z,101019.25
2023-09-08T19:11:40.328Z,101016.69
2023-09-08T19:14:06.823Z,101016.44
2023-09-08T19:16:33.729Z,101013.56
2023-09-08T19:19:00.264Z,101015.84
2023-09-08T19:21:26.699Z,101013.53
2023-09-08T19:23:53.161Z,101014.34
2023-09-08T19:26:19.537Z,101020.25
2023-09-08T19:28:45.991Z,101018.69
2023-09-08T19:31:12.470Z,101021.91
2023-09-08T19:33:39.158Z,101015.41
2023-09-08T19:36:05.924Z,101008.28
2023-09-08T19:38:33.046Z,101013.41
2023-09-08T19:41:05.786Z,101017.00
2023-09-08T19:43:32.524Z,101018.94
2023-09-08T19:46:04.127Z,101019.38
2023-09-08T19:48:30.951Z,101020.06
2023-09-08T19:50:57.951Z,101018.13
2023-09-08T19:53:24.534Z,101019.94
2023-09-08T19:55:53.620Z,101018.25
2023-09-08T19:58:20.949Z,101025.97
2023-09-08T20:00:50.284Z,101025.75
2023-09-08T20:03:16.934Z,101026.94
2023-09-08T20:05:44.325Z,101033.41
2023-09-08T20:08:11.159Z,101027.53
2023-09-08T20:10:37.636Z,101031.47
2023-09-08T20:13:04.290Z,101026.34
2023-09-08T20:15:31.491Z,101035.13
2023-09-08T20:17:57.947Z,101028.53
2023-09-08T20:20:25.906Z,101029.03
2023-09-08T20:22:52.588Z,101031.78
2023-09-08T20:25:18.977Z,101042.84
2023-09-08T20:27:47.970Z,101040.78
2023-09-08T20:30:14.995Z,101035.44
2023-09-08T20:32:41.504Z,101039.97
2023-09-08T20:35:09.737Z,101039.47
2023-09-08T20:37:36.265Z,101043.34
2023-09-08T20:40:03.926Z,101039.50
2023-09-08T20:42:30.340Z,101037.81
2023-09-08T20:44:56.791Z,101045.97
2023-09-08T20:47:23.138Z,101042.59
2023-09-08T20:49:49.516Z,101046.84
2023-09-08T20:52:15.969Z,101044.44
2023-09-08T20:54:45.534Z,101056.09
2023-09-08T20:57:12.317Z,101044.16
2023-09-08T20:59:39.530Z,101043.06
2023-09-08T21:02:08.991Z,101042.94
2023-09-08T21:04:35.403Z,101046.00
2023-09-08T21:07:01.911Z,101039.56
2023-09-08T21:09:28.355Z,101042.56
2023-09-08T21:11:54.927Z,101043.56
2023-09-08T21:14:21.417Z,101039.31
2023-09-08T21:16:47.749Z,101033.09
2023-09-08T21:19:15.061Z,101044.66
2023-09-08T21:21:41.635Z,101035.28
2023-09-08T21:24:08.220Z,101038.91
2023-09-08T21:26:34.709Z,101034.03
2023-09-08T21:29:01.110Z,101035.97
2023-09-08T21:31:27.525Z,101040.47
2023-09-08T21:33:54.044Z,101042.50
2023-09-08T21:36:20.536Z,101040.59
2023-09-08T21:38:46.923Z,101045.06
2023-09-08T21:41:13.565Z,101043.47
2023-09-08T21:43:40.234Z,101036.78
2023-09-08T21:46:08.391Z,101046.56
2023-09-08T21:48:36.601Z,101046.09
2023-09-08T21:51:04.015Z,101048.53
2023-09-08T21:53:30.588Z,101047.28
2023-09-08T21:55:57.100Z,101042.91
2023-09-08T21:58:23.525Z,101048.50
2023-09-08T22:00:50.036Z,101053.69
2023-09-08T22:03:16.555Z,101051.34
2023-09-08T22:05:43.456Z,101046.59
2023-09-08T22:08:10.137Z,101051.47
2023-09-08T22:10:36.599Z,101048.44
2023-09-08T22:13:03.049Z,101057.69
2023-09-08T22:15:29.460Z,101055.97
2023-09-08T22:17:56.127Z,101053.28
2023-09-08T22:20:23.508Z,101052.47
2023-09-08T22:22:50.029Z,101049.03
2023-09-08T22:25:16.410Z,101053.41
2023-09-08T22:27:43.007Z,101052.28
2023-09-08T22:30:09.828Z,101046.19
2023-09-08T22:32:36.633Z,101048.06
2023-09-08T22:35:05.110Z,101057.00
2023-09-08T22:37:32.399Z,101050.16
2023-09-08T22:39:58.752Z,101045.31
2023-09-08T22:42:25.618Z,101044.72
2023-09-08T22:44:52.077Z,101044.41
2023-09-08T22:47:18.465Z,101044.53
2023-09-08T22:49:57.433Z,101047.69
2023-09-08T22:52:24.119Z,101043.22
2023-09-08T22:54:50.562Z,101042.03
2023-09-08T22:57:17.020Z,101046.75
2023-09-08T22:59:44.137Z,101050.00
2023-09-08T23:02:10.864Z,101052.56
2023-09-08T23:04:37.274Z,101041.25
2023-09-08T23:07:03.849Z,101047.22
2023-09-08T23:09:30.281Z,101042.03
2023-09-08T23:11:58.438Z,101048.44
2023-09-08T23:14:24.880Z,101042.72
2023-09-08T23:16:51.364Z,101041.38
2023-09-08T23:19:18.288Z,101041.97
2023-09-08T23:21:44.730Z,101042.16
2023-09-08T23:24:11.174Z,101045.38
2023-09-08T23:26:37.595Z,101036.84
2023-09-08T23:29:03.981Z,101036.84
2023-09-08T23:31:30.558Z,101038.00
2023-09-08T23:33:56.952Z,101036.41
2023-09-08T23:36:27.534Z,101033.75
2023-09-08T23:38:53.903Z,101035.38
2023-09-08T23:41:20.635Z,101025.84
2023-09-08T23:43:47.044Z,101025.41
2023-09-08T23:46:13.515Z,101023.41
2023-09-08T23:48:39.909Z,101020.22
2023-09-08T23:51:06.321Z,101025.03
2023-09-08T23:53:34.166Z,101016.19
2023-09-08T23:56:01.669Z,101024.06
2023-09-08T23:58:28.053Z,101017.09
